To NAV CANADA Home Page Login to a new session Search on AWWS site Feedback and Comments Disclaimer Vers la page française équivalente Tips FAQ What's new on the site To the Forecasts and Observations / NOTAM section To "File a Flight Plan" website Publications and other links Update of the User's profile FIC Telephone Numbers My Weather Data Folder Route Weather Data Regional Weather Data Local Weather Data To the Forecasts and Observations / NOTAM section
Request Generated 09/26/2016 at 05:19:35 UTC . Weather information available at that time is displayed.

METAR/TAF

COMOX/BC    

METAR CYQQ 260500Z 32004KT 20SM OVC027 13/12 A3033 RMK SC8 SLP271=
METAR CYQQ 260400Z 32004KT 20SM OVC029 14/12 A3035 RMK SC8 SLP277=
METAR CYQQ 260300Z 35005KT 20SM OVC030 14/12 A3035 RMK SC8 SLP279=

TAF CYQQ 252339Z 2600/2624 12005KT P6SM OVC030
BECMG 2600/2602 32005KT
FM261300 VRB03KT P6SM SCT030 OVC070 TEMPO 2613/2617 P6SM -SHRA
RMK NXT FCST BY 260600Z=
Your time UTC time
Weather data provided by Environment Canada and NAV CANADA